Big Piney, WY weather

Big Piney-Marbleton Airport (AMOS), Big Piney, WY: 12/13/2017 10:53
Visibility10 statute mileslots of clouds
View 7-Day Forecast
Area Summary
Sky/CloudsSolid Overcast at 7000ft
Weather [last 24 hours]None
Pressure30.19 in.Hg (1022 hPa)
3-hour Pressure Tendency0.02953 in.Hg (1 hPa) Steady or increasing, then decreasing; or decreasing then decreasing more rapidly
Dew Point6.1 °F (-14.4 °C)
Relative Humidity30.3 %
Temperature34 °F (1.1 °C)red thermometer
Wind Chill28.8 °F (-1.78 °C)
Reading TimeMinimum to Maximum Temperature
6-hr ending 12/13@10:5319.9 °F to 34 °F (-6.7 °C to 1.1 °C)
6-hr ending 12/13@04:5317.1 °F to 25 °F (-8.3 °C to -3.9 °C)
6-hr ending 12/12@22:5317.1 °F to 41 °F (-8.3 °C to 5 °C)
6-hr ending 12/12@16:5336 °F to 57 °F (2.2 °C to 13.9 °C)
24-hr ending 12/12@23:539 °F to 57 °F (-12.8 °C to 13.9 °C)
Wind5.75 MPH (5 KT) green arrow pointing 202.5 degrees
Wind FromSouth/Southwest (200 Degrees)
Twilight Begins07:09Sunshine Yesterday
Sunrise07:41N/A
Sunset16:49
Twilight Ends17:21
METARKBPI 131753Z AUTO 20005KT 10SM OVC070 01/M14 A3019 RMK AO2 SLP235 T00111144 10011 21067 58010
Tags: